sensor_id;sensor_type;location;lat;lon;timestamp;temperature;humidity
12460;DHT22;6295;49.452;8.466;2023-06-10T03:14:20;16.80;99.90
12460;DHT22;6295;49.452;8.466;2023-06-10T03:22:28;16.70;99.90
12460;DHT22;6295;49.452;8.466;2023-06-10T03:26:30;16.60;99.90
12460;DHT22;6295;49.452;8.466;2023-06-10T03:30:33;16.70;99.90
12460;DHT22;6295;49.452;8.466;2023-06-10T03:34:35;16.60;99.90
12460;DHT22;6295;49.452;8.466;2023-06-10T03:38:37;16.60;99.90
12460;DHT22;6295;49.452;8.466;2023-06-10T03:46:43;16.50;99.90
12460;DHT22;6295;49.452;8.466;2023-06-10T03:54:51;16.50;99.90
12460;DHT22;6295;49.452;8.466;2023-06-10T04:02:57;16.50;99.90
12460;DHT22;6295;49.452;8.466;2023-06-10T04:11:01;16.50;99.90
12460;DHT22;6295;49.452;8.466;2023-06-10T04:15:05;16.50;99.90
12460;DHT22;6295;49.452;8.466;2023-06-10T04:19:09;16.50;99.90
12460;DHT22;6295;49.452;8.466;2023-06-10T04:23:11;16.60;99.90
12460;DHT22;6295;49.452;8.466;2023-06-10T04:27:13;16.60;99.90
12460;DHT22;6295;49.452;8.466;2023-06-10T04:31:15;16.70;99.90
12460;DHT22;6295;49.452;8.466;2023-06-10T04:35:18;16.70;99.90
12460;DHT22;6295;49.452;8.466;2023-06-10T04:39:20;16.80;99.90
12460;DHT22;6295;49.452;8.466;2023-06-10T04:43:23;16.90;99.90
12460;DHT22;6295;49.452;8.466;2023-06-10T04:47:26;16.90;99.90
12460;DHT22;6295;49.452;8.466;2023-06-10T04:51:30;17.00;99.90
12460;DHT22;6295;49.452;8.466;2023-06-10T04:55:32;17.10;99.90
12460;DHT22;6295;49.452;8.466;2023-06-10T04:59:34;17.20;99.90
12460;DHT22;6295;49.452;8.466;2023-06-10T05:03:38;17.30;99.90
12460;DHT22;6295;49.452;8.466;2023-06-10T05:15:47;17.70;99.90
12460;DHT22;6295;49.452;8.466;2023-06-10T05:23:53;18.10;99.90
12460;DHT22;6295;49.452;8.466;2023-06-10T05:27:55;18.20;99.90
12460;DHT22;6295;49.452;8.466;2023-06-10T05:31:57;18.30;99.90
12460;DHT22;6295;49.452;8.466;2023-06-10T05:36:04;18.50;99.90
12460;DHT22;6295;49.452;8.466;2023-06-10T05:40:08;18.70;99.90
12460;DHT22;6295;49.452;8.466;2023-06-10T05:44:11;18.80;99.90
12460;DHT22;6295;49.452;8.466;2023-06-10T05:48:13;18.90;99.90
12460;DHT22;6295;49.452;8.466;2023-06-10T05:56:19;19.20;99.90
12460;DHT22;6295;49.452;8.466;2023-06-10T06:00:22;19.40;99.90
12460;DHT22;6295;49.452;8.466;2023-06-10T06:04:24;19.50;99.90
12460;DHT22;6295;49.452;8.466;2023-06-10T06:08:26;19.70;99.90
12460;DHT22;6295;49.452;8.466;2023-06-10T06:12:29;19.80;99.90
12460;DHT22;6295;49.452;8.466;2023-06-10T06:16:32;19.90;99.90
12460;DHT22;6295;49.452;8.466;2023-06-10T06:20:37;20.10;99.90
12460;DHT22;6295;49.452;8.466;2023-06-10T06:28:47;20.30;99.90
12460;DHT22;6295;49.452;8.466;2023-06-10T06:32:49;20.40;99.90
12460;DHT22;6295;49.452;8.466;2023-06-10T06:36:53;20.60;99.90
12460;DHT22;6295;49.452;8.466;2023-06-10T06:40:55;20.80;99.90
12460;DHT22;6295;49.452;8.466;2023-06-10T06:44:59;21.00;99.90
12460;DHT22;6295;49.452;8.466;2023-06-10T06:49:02;21.10;99.90
12460;DHT22;6295;49.452;8.466;2023-06-10T06:53:04;21.30;99.90
12460;DHT22;6295;49.452;8.466;2023-06-10T06:57:06;21.40;99.90
12460;DHT22;6295;49.452;8.466;2023-06-10T07:01:10;21.60;99.90
12460;DHT22;6295;49.452;8.466;2023-06-10T07:13:17;22.10;99.90
12460;DHT22;6295;49.452;8.466;2023-06-10T07:17:21;22.10;99.90
12460;DHT22;6295;49.452;8.466;2023-06-10T07:21:23;22.30;99.90
12460;DHT22;6295;49.452;8.466;2023-06-10T07:25:25;22.50;99.90
12460;DHT22;6295;49.452;8.466;2023-06-10T07:29:27;22.70;99.90
12460;DHT22;6295;49.452;8.466;2023-06-10T07:33:30;22.80;99.90
12460;DHT22;6295;49.452;8.466;2023-06-10T07:37:33;22.90;99.90
12460;DHT22;6295;49.452;8.466;2023-06-10T07:41:35;23.10;99.90
12460;DHT22;6295;49.452;8.466;2023-06-10T07:49:40;23.30;99.90
12460;DHT22;6295;49.452;8.466;2023-06-10T07:53:43;23.40;99.90
12460;DHT22;6295;49.452;8.466;2023-06-10T07:57:45;23.50;99.90
12460;DHT22;6295;49.452;8.466;2023-06-10T08:01:49;23.70;99.90
12460;DHT22;6295;49.452;8.466;2023-06-10T08:05:53;23.70;99.90
12460;DHT22;6295;49.452;8.466;2023-06-10T08:09:55;23.80;99.90
12460;DHT22;6295;49.452;8.466;2023-06-10T08:13:57;23.70;99.90
12460;DHT22;6295;49.452;8.466;2023-06-10T08:17:59;23.80;99.90
12460;DHT22;6295;49.452;8.466;2023-06-10T08:22:03;23.80;99.90
12460;DHT22;6295;49.452;8.466;2023-06-10T08:30:08;24.20;99.90
12460;DHT22;6295;49.452;8.466;2023-06-10T08:34:11;24.30;99.90
12460;DHT22;6295;49.452;8.466;2023-06-10T08:38:15;24.40;99.90
12460;DHT22;6295;49.452;8.466;2023-06-10T08:42:22;24.60;99.90
12460;DHT22;6295;49.452;8.466;2023-06-10T08:46:25;24.80;99.90
12460;DHT22;6295;49.452;8.466;2023-06-10T08:50:28;25.00;99.90
12460;DHT22;6295;49.452;8.466;2023-06-10T08:54:34;25.20;99.90
12460;DHT22;6295;49.452;8.466;2023-06-10T08:58:39;25.20;99.90
12460;DHT22;6295;49.452;8.466;2023-06-10T09:02:44;25.30;99.90
12460;DHT22;6295;49.452;8.466;2023-06-10T09:06:49;25.30;99.90
12460;DHT22;6295;49.452;8.466;2023-06-10T09:10:53;25.40;99.90
12460;DHT22;6295;49.452;8.466;2023-06-10T09:14:55;25.60;99.90
12460;DHT22;6295;49.452;8.466;2023-06-10T09:18:58;25.70;99.90
12460;DHT22;6295;49.452;8.466;2023-06-10T09:23:00;25.80;99.90
12460;DHT22;6295;49.452;8.466;2023-06-10T09:35:12;26.10;99.90
12460;DHT22;6295;49.452;8.466;2023-06-10T09:39:18;26.00;99.90
12460;DHT22;6295;49.452;8.466;2023-06-10T09:43:21;25.90;99.90
12460;DHT22;6295;49.452;8.466;2023-06-10T09:55:28;26.00;99.90
12460;DHT22;6295;49.452;8.466;2023-06-10T09:59:37;25.90;99.90
12460;DHT22;6295;49.452;8.466;2023-06-10T10:07:49;25.70;99.90
12460;DHT22;6295;49.452;8.466;2023-06-10T10:11:55;25.70;99.90
12460;DHT22;6295;49.452;8.466;2023-06-10T10:20:07;25.90;99.90
12460;DHT22;6295;49.452;8.466;2023-06-10T10:24:17;26.00;99.90
12460;DHT22;6295;49.452;8.466;2023-06-10T10:28:21;26.20;99.90
12460;DHT22;6295;49.452;8.466;2023-06-10T10:32:32;26.40;99.90
12460;DHT22;6295;49.452;8.466;2023-06-10T10:40:39;26.60;99.90
12460;DHT22;6295;49.452;8.466;2023-06-10T10:44:45;26.70;99.90
12460;DHT22;6295;49.452;8.466;2023-06-10T10:48:54;27.00;99.90
12460;DHT22;6295;49.452;8.466;2023-06-10T10:53:00;27.10;99.60
12460;DHT22;6295;49.452;8.466;2023-06-10T10:57:18;27.40;98.10
12460;DHT22;6295;49.452;8.466;2023-06-10T11:01:20;27.70;96.90
12460;DHT22;6295;49.452;8.466;2023-06-10T11:05:36;27.90;96.30
12460;DHT22;6295;49.452;8.466;2023-06-10T11:09:57;28.20;95.30
12460;DHT22;6295;49.452;8.466;2023-06-10T11:18:19;28.60;94.50
12460;DHT22;6295;49.452;8.466;2023-06-10T11:22:23;28.70;93.50
12460;DHT22;6295;49.452;8.466;2023-06-10T11:42:45;28.60;91.20
12460;DHT22;6295;49.452;8.466;2023-06-10T11:46:48;28.60;92.30
12460;DHT22;6295;49.452;8.466;2023-06-10T11:50:52;28.60;92.10
12460;DHT22;6295;49.452;8.466;2023-06-10T11:59:00;29.10;91.60
12460;DHT22;6295;49.452;8.466;2023-06-10T12:03:05;29.30;90.40
12460;DHT22;6295;49.452;8.466;2023-06-10T12:07:07;29.50;90.30
12460;DHT22;6295;49.452;8.466;2023-06-10T12:11:10;29.60;89.60
12460;DHT22;6295;49.452;8.466;2023-06-10T12:15:23;29.60;88.10
12460;DHT22;6295;49.452;8.466;2023-06-10T12:19:26;29.40;89.20
12460;DHT22;6295;49.452;8.466;2023-06-10T12:23:28;29.20;90.60
12460;DHT22;6295;49.452;8.466;2023-06-10T12:27:32;29.30;90.90
12460;DHT22;6295;49.452;8.466;2023-06-10T12:39:56;29.60;90.00
12460;DHT22;6295;49.452;8.466;2023-06-10T12:52:09;29.10;90.40
12460;DHT22;6295;49.452;8.466;2023-06-10T12:56:11;29.10;90.50
12460;DHT22;6295;49.452;8.466;2023-06-10T13:00:16;29.10;90.10
12460;DHT22;6295;49.452;8.466;2023-06-10T13:04:19;29.10;88.80
12460;DHT22;6295;49.452;8.466;2023-06-10T13:08:22;29.30;90.00
12460;DHT22;6295;49.452;8.466;2023-06-10T13:12:25;29.50;90.60
12460;DHT22;6295;49.452;8.466;2023-06-10T13:16:31;29.60;88.90
12460;DHT22;6295;49.452;8.466;2023-06-10T13:20:33;29.50;87.40
12460;DHT22;6295;49.452;8.466;2023-06-10T13:24:39;29.60;87.10
12460;DHT22;6295;49.452;8.466;2023-06-10T13:28:41;29.80;88.30
12460;DHT22;6295;49.452;8.466;2023-06-10T13:32:44;29.90;88.10
12460;DHT22;6295;49.452;8.466;2023-06-10T13:36:46;29.90;87.70
12460;DHT22;6295;49.452;8.466;2023-06-10T13:44:51;29.70;87.70
12460;DHT22;6295;49.452;8.466;2023-06-10T13:52:57;29.50;86.80
12460;DHT22;6295;49.452;8.466;2023-06-10T14:01:05;29.80;83.80
12460;DHT22;6295;49.452;8.466;2023-06-10T14:17:16;30.50;86.10
12460;DHT22;6295;49.452;8.466;2023-06-10T14:21:19;30.50;83.20
12460;DHT22;6295;49.452;8.466;2023-06-10T14:25:24;30.30;81.20
12460;DHT22;6295;49.452;8.466;2023-06-10T14:29:27;30.00;82.60
12460;DHT22;6295;49.452;8.466;2023-06-10T14:37:35;29.60;83.30
12460;DHT22;6295;49.452;8.466;2023-06-10T14:41:37;29.50;84.00
12460;DHT22;6295;49.452;8.466;2023-06-10T14:49:42;29.40;85.90
12460;DHT22;6295;49.452;8.466;2023-06-10T14:53:46;29.50;83.80
12460;DHT22;6295;49.452;8.466;2023-06-10T14:57:48;29.60;82.10
12460;DHT22;6295;49.452;8.466;2023-06-10T15:01:50;29.80;81.80
12460;DHT22;6295;49.452;8.466;2023-06-10T15:05:52;30.10;80.80
12460;DHT22;6295;49.452;8.466;2023-06-10T15:13:58;30.50;78.90
12460;DHT22;6295;49.452;8.466;2023-06-10T15:18:00;30.60;78.70
12460;DHT22;6295;49.452;8.466;2023-06-10T15:30:10;30.90;76.80
12460;DHT22;6295;49.452;8.466;2023-06-10T15:43:07;31.20;81.30
12460;DHT22;6295;49.452;8.466;2023-06-10T15:47:12;31.30;77.90
12460;DHT22;6295;49.452;8.466;2023-06-10T15:59:30;31.50;75.50
12460;DHT22;6295;49.452;8.466;2023-06-10T16:03:34;31.20;76.60
12460;DHT22;6295;49.452;8.466;2023-06-10T16:11:38;30.50;80.50
12460;DHT22;6295;49.452;8.466;2023-06-10T16:19:44;29.90;82.30
12460;DHT22;6295;49.452;8.466;2023-06-10T16:23:46;30.00;80.40
12460;DHT22;6295;49.452;8.466;2023-06-10T16:35:56;29.80;82.30
12460;DHT22;6295;49.452;8.466;2023-06-10T16:39:58;29.60;82.20
12460;DHT22;6295;49.452;8.466;2023-06-10T16:44:00;29.70;82.00
12460;DHT22;6295;49.452;8.466;2023-06-10T16:48:04;29.80;80.70
12460;DHT22;6295;49.452;8.466;2023-06-10T16:52:08;30.00;78.80
12460;DHT22;6295;49.452;8.466;2023-06-10T17:00:13;30.30;79.10
12460;DHT22;6295;49.452;8.466;2023-06-10T17:04:17;30.30;78.10
12460;DHT22;6295;49.452;8.466;2023-06-10T17:08:19;30.40;78.30
12460;DHT22;6295;49.452;8.466;2023-06-10T17:12:21;30.40;77.40
12460;DHT22;6295;49.452;8.466;2023-06-10T17:16:23;30.40;76.20
12460;DHT22;6295;49.452;8.466;2023-06-10T17:24:31;30.50;75.70
12460;DHT22;6295;49.452;8.466;2023-06-10T17:28:33;30.40;77.00
12460;DHT22;6295;49.452;8.466;2023-06-10T17:32:35;30.40;77.10
12460;DHT22;6295;49.452;8.466;2023-06-10T17:36:42;30.50;76.40
12460;DHT22;6295;49.452;8.466;2023-06-10T17:40:44;30.60;76.70
12460;DHT22;6295;49.452;8.466;2023-06-10T17:44:46;30.60;76.60
12460;DHT22;6295;49.452;8.466;2023-06-10T17:48:48;30.60;78.60
12460;DHT22;6295;49.452;8.466;2023-06-10T17:52:51;30.50;77.10
12460;DHT22;6295;49.452;8.466;2023-06-10T17:56:54;30.40;76.70
12460;DHT22;6295;49.452;8.466;2023-06-10T18:00:56;30.30;75.90
12460;DHT22;6295;49.452;8.466;2023-06-10T18:09:03;30.10;77.70
12460;DHT22;6295;49.452;8.466;2023-06-10T18:13:06;30.10;77.40
12460;DHT22;6295;49.452;8.466;2023-06-10T18:17:08;30.10;77.50
12460;DHT22;6295;49.452;8.466;2023-06-10T18:21:11;30.00;78.20
12460;DHT22;6295;49.452;8.466;2023-06-10T18:29:17;29.60;79.10
12460;DHT22;6295;49.452;8.466;2023-06-10T18:33:19;29.40;79.20
12460;DHT22;6295;49.452;8.466;2023-06-10T18:49:30;28.60;82.30
12460;DHT22;6295;49.452;8.466;2023-06-10T18:53:33;28.40;82.40
